This is the latest recevied weather packets stored in our database for station/object HS2LXA-WX. If no packets are shown the sender has not sent any weather packets the latest 10 day(s).
| Time | Temp. | Humidity | Pressure | Rain* | Wind** | Luminosity | Snow |
|---|---|---|---|---|---|---|---|
| 1778081083 | 30.56° C | 83% | 1013.2 hPa | 0 mm | - | - | - |
| 1778079787 | 31.11° C | 78% | 1013.2 hPa | 0 mm | - | - | - |
| 1778079100 | 33.33° C | 68% | 1013.2 hPa | 0 mm | - | - | - |
| 1778078499 | 33.33° C | 67% | 1013.1 hPa | 0 mm | - | - | - |
| 1778077483 | 32.78° C | 71% | 1013.2 hPa | 0 mm | - | - | - |
| 1778076884 | 32.78° C | 70% | 1013.1 hPa | 0 mm | - | - | - |
| 1778075872 | 32.78° C | 71% | 1013.1 hPa | 0 mm | - | - | - |
| 1778075272 | 33.33° C | 71% | 1013.2 hPa | 0 mm | - | - | - |
| 1778074672 | 33.33° C | 70% | 1013.1 hPa | 0 mm | - | - | - |
| 1778074068 | 33.33° C | 71% | 1013.2 hPa | 0 mm | - | - | - |
| 1778072245 | 31.67° C | 77% | 1013.1 hPa | 0 mm | - | - | - |
| 1778071645 | 31.67° C | 76% | 1013.1 hPa | 0 mm | - | - | - |
| 1778071045 | 31.67° C | 76% | 1013.1 hPa | 0 mm | - | - | - |
| 1778070026 | 31.67° C | 76% | 1013.2 hPa | 0 mm | - | - | - |
| 1778069237 | 31.67° C | 75% | 1013.1 hPa | 0 mm | - | - | - |
| 1778068633 | 31.67° C | 76% | 1013.1 hPa | 0 mm | - | - | - |
| 1778067967 | 31.67° C | 74% | 1013.2 hPa | 0 mm | - | - | - |
| 1778067366 | 32.22° C | 72% | 1013.1 hPa | 0 mm | - | - | - |
| 1778066252 | 32.22° C | 70% | 1013.1 hPa | 0 mm | - | - | - |
| 1778065651 | 32.78° C | 68% | 1013.1 hPa | 0 mm | - | - | - |
| 1778065050 | 32.78° C | 69% | 1013.2 hPa | 0 mm | - | - | - |
| 1778064383 | 32.78° C | 70% | 1013.1 hPa | 0 mm | - | - | - |
| 1778063783 | 33.33° C | 68% | 1013.2 hPa | 0 mm | - | - | - |
| 1778063183 | 33.33° C | 67% | 1013.2 hPa | 0 mm | - | - | - |
| 1778062503 | 33.33° C | 68% | 1013.1 hPa | 0 mm | - | - | - |
* Rain latest hour (hover to see other rain measurements)
** Current wind speed in m/s (hover to see current wind gust speed)